Hanjin Philadelphia — A8CN8 — position and weather

sailwx.info

Track history (hours):
 
Tides and Currents Weather Stations Pressure Air Temp Water Temp Dewpoint Dewpoint Depression Visibility Wind Speed Wind Dir Waves Ship Positions

Hanjin Philadelphia

Last reported at 2015-Apr-01 16:33 UTC. Time now 2015-Apr-01 16:37 UTC.
Position N 39°26' W 000°20'.

Length 282.1 m; beam 32.2 m; draft 13 m.

Type: Ship. MMSI: 636026894.

Date/timePositionNaut miles runAvg speedWind from/ knotsBaromVisibWave heightAir tempDewpointWater temp
2015-Apr-01 16:33N 39°26' W 000°20'0 0.0
2015-Apr-01 15:33N 39°26' W 000°20'0 0.0
2015-Apr-01 14:33N 39°26' W 000°20'0 0.0
2015-Apr-01 13:33N 39°26' W 000°20'0 0.0
2015-Apr-01 12:33N 39°26' W 000°20'0 0.0
2015-Apr-01 11:33N 39°26' W 000°20'0 0.0
2015-Apr-01 10:33N 39°26' W 000°20'3 2.8
2015-Apr-01 09:33N 39°25' W 000°17'5811.2
2015-Apr-01 04:21N 38°34' E 000°21'1315.9
2015-Apr-01 03:32N 38°23' E 000°12'1515.0
2015-Apr-01 02:33N 38°11' E 000°01'1515.2
2015-Apr-01 01:34N 37°59' W 000°09'1515.3
2015-Apr-01 00:33N 37°46' W 000°20'1515.2
2015-Mar-31 23:33N 37°33' W 000°31'1515.1
2015-Mar-31 22:34N 37°23' W 000°45'1615.5
2015-Mar-31 21:34N 37°13' W 000°60'1615.6
2015-Mar-31 20:32N 37°02' W 001°14'19516.1
2015-Mar-31 08:27N 36°01' W 005°05'2123.9
2015-Mar-31 07:33N 35°56' W 005°30'2421.2
2015-Mar-31 06:26N 35°54' W 005°59'4121.6
2015-Mar-31 04:31N 35°33' W 006°44'2222.8
2015-Mar-31 03:33N 35°19' W 007°04'2322.8
2015-Mar-31 02:34N 35°04' W 007°25'2322.7
2015-Mar-31 01:34N 34°48' W 007°45'4922.2
2015-Mar-30 23:21N 34°16' W 008°30'1822.1
2015-Mar-30 22:33N 34°04' W 008°46'4521.9
2015-Mar-30 20:31N 33°35' W 009°26'2421.4
2015-Mar-30 19:23N 33°19' W 009°48'6121.6
2015-Mar-30 16:34N 32°37' W 010°40'2321.4
2015-Mar-30 15:28N 32°19' W 010°59'1921.4
2015-Mar-30 14:33N 32°05' W 011°14'2121.5
2015-Mar-30 13:34N 31°49' W 011°31'2221.6
2015-Mar-30 12:34N 31°33' W 011°48'2121.4
2015-Mar-30 11:33N 31°17' W 012°05'2121.3
2015-Mar-30 10:33N 31°02' W 012°22'2121.4
2015-Mar-30 09:33N 30°46' W 012°39'2121.4
2015-Mar-30 08:33N 30°30' W 012°56'2321.3
2015-Mar-30 07:29N 30°13' W 013°13'1920.3
2015-Mar-30 06:33N 29°59' W 013°28'2020.2
2015-Mar-30 05:33N 29°44' W 013°44'2020.0
2015-Mar-30 04:33N 29°29' W 013°59'2020.2
2015-Mar-30 03:33N 29°14' W 014°15'2020.3
2015-Mar-30 02:33N 28°59' W 014°30'2220.0
2015-Mar-30 01:28N 28°40' W 014°42'1920.6
2015-Mar-30 00:33N 28°22' W 014°49'2019.5
2015-Mar-29 23:34N 28°05' W 014°59'1919.4
2015-Mar-29 22:33N 28°06' W 015°21'2 1.6
2015-Mar-29 21:31N 28°05' W 015°23'0 0.0
2015-Mar-29 20:31N 28°05' W 015°23'0 0.0
2015-Mar-29 19:31N 28°05' W 015°23'0 0.1
2015-Mar-29 18:33N 28°05' W 015°23'0 0.2
2015-Mar-29 17:33N 28°05' W 015°23'3 3.5
2015-Mar-29 16:33N 28°07' W 015°20'1615.7
2015-Mar-29 15:33N 28°10' W 015°02'1414.0
2015-Mar-29 14:33N 27°56' W 014°59'2019.9
2015-Mar-29 13:33N 27°37' W 015°07'  
2015-Mar-27 06:28N 09°03' W 016°10'2020.6
2015-Mar-27 05:30N 08°51' W 015°55'2020.8
2015-Mar-27 04:33N 08°39' W 015°39'2820.7
2015-Mar-27 03:14N 08°21' W 015°17'1420.4
2015-Mar-27 02:34N 08°13' W 015°07'2120.7
2015-Mar-27 01:34N 08°00' W 014°50'4025.5
2015-Mar-27 00:00N 07°36' W 014°18'70619.6 270 / 101014.010.8 0.525.023.626.3
2015-Mar-25 12:00N 04°06' W 003°00'   260 / 171010.0 5.4 0.532.030.729.5
Track history (hours):
 
Tides and Currents Weather Stations Pressure Air Temp Water Temp Dewpoint Dewpoint Depression Visibility Wind Speed Wind Dir Waves Ship Positions

Hanjin Philadelphia

Last reported at 2015-Apr-01 16:33 UTC. Time now 2015-Apr-01 16:37 UTC.
Position N 39°26' W 000°20'.

Length 282.1 m; beam 32.2 m; draft 13 m.

Type: Ship. MMSI: 636026894.

Date/timePositionNaut miles runAvg speedWind from/ knotsBaromVisibWave heightAir tempDewpointWater temp
2015-Apr-01 16:33N 39°26' W 000°20'0 0.0
2015-Apr-01 15:33N 39°26' W 000°20'0 0.0
2015-Apr-01 14:33N 39°26' W 000°20'0 0.0
2015-Apr-01 13:33N 39°26' W 000°20'0 0.0
2015-Apr-01 12:33N 39°26' W 000°20'0 0.0
2015-Apr-01 11:33N 39°26' W 000°20'0 0.0
2015-Apr-01 10:33N 39°26' W 000°20'3 2.8
2015-Apr-01 09:33N 39°25' W 000°17'5811.2
2015-Apr-01 04:21N 38°34' E 000°21'1315.9
2015-Apr-01 03:32N 38°23' E 000°12'1515.0
2015-Apr-01 02:33N 38°11' E 000°01'1515.2
2015-Apr-01 01:34N 37°59' W 000°09'1515.3
2015-Apr-01 00:33N 37°46' W 000°20'1515.2
2015-Mar-31 23:33N 37°33' W 000°31'1515.1
2015-Mar-31 22:34N 37°23' W 000°45'1615.5
2015-Mar-31 21:34N 37°13' W 000°60'1615.6
2015-Mar-31 20:32N 37°02' W 001°14'19516.1
2015-Mar-31 08:27N 36°01' W 005°05'2123.9
2015-Mar-31 07:33N 35°56' W 005°30'2421.2
2015-Mar-31 06:26N 35°54' W 005°59'4121.6
2015-Mar-31 04:31N 35°33' W 006°44'2222.8
2015-Mar-31 03:33N 35°19' W 007°04'2322.8
2015-Mar-31 02:34N 35°04' W 007°25'2322.7
2015-Mar-31 01:34N 34°48' W 007°45'4922.2
2015-Mar-30 23:21N 34°16' W 008°30'1822.1
2015-Mar-30 22:33N 34°04' W 008°46'4521.9
2015-Mar-30 20:31N 33°35' W 009°26'2421.4
2015-Mar-30 19:23N 33°19' W 009°48'6121.6
2015-Mar-30 16:34N 32°37' W 010°40'2321.4
2015-Mar-30 15:28N 32°19' W 010°59'1921.4
2015-Mar-30 14:33N 32°05' W 011°14'2121.5
2015-Mar-30 13:34N 31°49' W 011°31'2221.6
2015-Mar-30 12:34N 31°33' W 011°48'2121.4
2015-Mar-30 11:33N 31°17' W 012°05'2121.3
2015-Mar-30 10:33N 31°02' W 012°22'2121.4
2015-Mar-30 09:33N 30°46' W 012°39'2121.4
2015-Mar-30 08:33N 30°30' W 012°56'2321.3
2015-Mar-30 07:29N 30°13' W 013°13'1920.3
2015-Mar-30 06:33N 29°59' W 013°28'2020.2
2015-Mar-30 05:33N 29°44' W 013°44'2020.0
2015-Mar-30 04:33N 29°29' W 013°59'2020.2
2015-Mar-30 03:33N 29°14' W 014°15'2020.3
2015-Mar-30 02:33N 28°59' W 014°30'2220.0
2015-Mar-30 01:28N 28°40' W 014°42'1920.6
2015-Mar-30 00:33N 28°22' W 014°49'2019.5
2015-Mar-29 23:34N 28°05' W 014°59'1919.4
2015-Mar-29 22:33N 28°06' W 015°21'2 1.6
2015-Mar-29 21:31N 28°05' W 015°23'0 0.0
2015-Mar-29 20:31N 28°05' W 015°23'0 0.0
2015-Mar-29 19:31N 28°05' W 015°23'0 0.1
2015-Mar-29 18:33N 28°05' W 015°23'0 0.2
2015-Mar-29 17:33N 28°05' W 015°23'3 3.5
2015-Mar-29 16:33N 28°07' W 015°20'1615.7
2015-Mar-29 15:33N 28°10' W 015°02'1414.0
2015-Mar-29 14:33N 27°56' W 014°59'2019.9
2015-Mar-29 13:33N 27°37' W 015°07'  
2015-Mar-27 06:28N 09°03' W 016°10'2020.6
2015-Mar-27 05:30N 08°51' W 015°55'2020.8
2015-Mar-27 04:33N 08°39' W 015°39'2820.7
2015-Mar-27 03:14N 08°21' W 015°17'1420.4
2015-Mar-27 02:34N 08°13' W 015°07'2120.7
2015-Mar-27 01:34N 08°00' W 014°50'4025.5
2015-Mar-27 00:00N 07°36' W 014°18'70619.6 270 / 101014.010.8 0.525.023.626.3
2015-Mar-25 12:00N 04°06' W 003°00'   260 / 171010.0 5.4 0.532.030.729.5

Dump ship's entire track history